sensor_id;sensor_type;location;lat;lon;timestamp;temperature;humidity
42245;DHT22;27912;51.828;5.688;2023-05-07T00:01:06;13.60;99.90
42245;DHT22;27912;51.828;5.688;2023-05-07T00:03:32;13.60;99.90
42245;DHT22;27912;51.828;5.688;2023-05-07T00:05:57;13.50;99.90
42245;DHT22;27912;51.828;5.688;2023-05-07T00:08:23;13.50;99.90
42245;DHT22;27912;51.828;5.688;2023-05-07T00:10:49;13.50;99.90
42245;DHT22;27912;51.828;5.688;2023-05-07T00:13:15;13.40;99.90
42245;DHT22;27912;51.828;5.688;2023-05-07T00:15:40;13.40;99.90
42245;DHT22;27912;51.828;5.688;2023-05-07T00:18:06;13.40;99.90
42245;DHT22;27912;51.828;5.688;2023-05-07T00:20:31;13.40;99.90
42245;DHT22;27912;51.828;5.688;2023-05-07T00:22:57;13.30;99.90
42245;DHT22;27912;51.828;5.688;2023-05-07T00:25:22;13.30;99.90
42245;DHT22;27912;51.828;5.688;2023-05-07T00:27:48;13.30;99.90
42245;DHT22;27912;51.828;5.688;2023-05-07T00:30:14;13.30;99.90
42245;DHT22;27912;51.828;5.688;2023-05-07T00:32:39;13.30;99.90
42245;DHT22;27912;51.828;5.688;2023-05-07T00:35:07;13.20;99.90
42245;DHT22;27912;51.828;5.688;2023-05-07T00:37:33;13.30;99.90
42245;DHT22;27912;51.828;5.688;2023-05-07T00:39:59;13.20;99.90
42245;DHT22;27912;51.828;5.688;2023-05-07T00:42:24;13.20;99.90
42245;DHT22;27912;51.828;5.688;2023-05-07T00:44:50;13.10;99.90
42245;DHT22;27912;51.828;5.688;2023-05-07T00:47:16;13.10;99.90
42245;DHT22;27912;51.828;5.688;2023-05-07T00:49:43;13.10;99.90
42245;DHT22;27912;51.828;5.688;2023-05-07T00:52:11;13.00;99.90
42245;DHT22;27912;51.828;5.688;2023-05-07T00:54:38;13.00;99.90
42245;DHT22;27912;51.828;5.688;2023-05-07T00:57:06;13.00;99.90
42245;DHT22;27912;51.828;5.688;2023-05-07T00:59:32;13.00;99.90
42245;DHT22;27912;51.828;5.688;2023-05-07T01:01:58;13.00;99.90
42245;DHT22;27912;51.828;5.688;2023-05-07T01:04:25;13.00;99.90
42245;DHT22;27912;51.828;5.688;2023-05-07T01:06:51;13.00;99.90
42245;DHT22;27912;51.828;5.688;2023-05-07T01:09:18;13.00;99.90
42245;DHT22;27912;51.828;5.688;2023-05-07T01:11:48;13.10;99.90
42245;DHT22;27912;51.828;5.688;2023-05-07T01:14:14;13.10;99.90
42245;DHT22;27912;51.828;5.688;2023-05-07T01:16:40;13.10;99.90
42245;DHT22;27912;51.828;5.688;2023-05-07T01:19:08;13.10;99.90
42245;DHT22;27912;51.828;5.688;2023-05-07T01:21:33;13.10;99.90
42245;DHT22;27912;51.828;5.688;2023-05-07T01:24:02;13.20;99.90
42245;DHT22;27912;51.828;5.688;2023-05-07T01:26:28;13.30;99.90
42245;DHT22;27912;51.828;5.688;2023-05-07T01:28:53;13.30;99.90
42245;DHT22;27912;51.828;5.688;2023-05-07T01:31:19;13.30;99.90
42245;DHT22;27912;51.828;5.688;2023-05-07T01:33:46;13.40;99.90
42245;DHT22;27912;51.828;5.688;2023-05-07T01:36:14;13.40;99.90
42245;DHT22;27912;51.828;5.688;2023-05-07T01:38:41;13.40;99.90
42245;DHT22;27912;51.828;5.688;2023-05-07T01:41:07;13.50;99.90
42245;DHT22;27912;51.828;5.688;2023-05-07T01:43:33;13.50;99.90
42245;DHT22;27912;51.828;5.688;2023-05-07T01:45:59;13.50;99.90
42245;DHT22;27912;51.828;5.688;2023-05-07T01:48:26;13.50;99.90
42245;DHT22;27912;51.828;5.688;2023-05-07T01:50:52;13.60;99.90
42245;DHT22;27912;51.828;5.688;2023-05-07T01:53:18;13.50;99.90
42245;DHT22;27912;51.828;5.688;2023-05-07T01:55:43;13.50;99.90
42245;DHT22;27912;51.828;5.688;2023-05-07T01:58:09;13.50;99.90
42245;DHT22;27912;51.828;5.688;2023-05-07T02:00:34;13.60;99.90
42245;DHT22;27912;51.828;5.688;2023-05-07T02:03:01;13.60;99.90
42245;DHT22;27912;51.828;5.688;2023-05-07T02:05:27;13.60;99.90
42245;DHT22;27912;51.828;5.688;2023-05-07T02:07:52;13.60;99.90
42245;DHT22;27912;51.828;5.688;2023-05-07T02:10:18;13.60;99.90
42245;DHT22;27912;51.828;5.688;2023-05-07T02:12:43;13.60;99.90
42245;DHT22;27912;51.828;5.688;2023-05-07T02:15:10;13.60;99.90
42245;DHT22;27912;51.828;5.688;2023-05-07T02:20:03;13.60;99.90
42245;DHT22;27912;51.828;5.688;2023-05-07T02:22:29;13.60;99.90
42245;DHT22;27912;51.828;5.688;2023-05-07T02:24:55;13.50;99.90
42245;DHT22;27912;51.828;5.688;2023-05-07T02:27:21;13.50;99.90
42245;DHT22;27912;51.828;5.688;2023-05-07T02:29:46;13.60;99.90
42245;DHT22;27912;51.828;5.688;2023-05-07T02:32:12;13.50;99.90
42245;DHT22;27912;51.828;5.688;2023-05-07T02:34:37;13.50;99.90
42245;DHT22;27912;51.828;5.688;2023-05-07T02:37:03;13.50;99.90
42245;DHT22;27912;51.828;5.688;2023-05-07T02:39:28;13.60;99.90
42245;DHT22;27912;51.828;5.688;2023-05-07T02:41:54;13.50;99.90
42245;DHT22;27912;51.828;5.688;2023-05-07T02:44:19;13.50;99.90
42245;DHT22;27912;51.828;5.688;2023-05-07T02:46:45;13.50;99.90
42245;DHT22;27912;51.828;5.688;2023-05-07T02:49:10;13.50;99.90
42245;DHT22;27912;51.828;5.688;2023-05-07T02:51:36;13.40;99.90
42245;DHT22;27912;51.828;5.688;2023-05-07T02:54:02;13.50;99.90
42245;DHT22;27912;51.828;5.688;2023-05-07T02:56:27;13.50;99.90
42245;DHT22;27912;51.828;5.688;2023-05-07T02:58:53;13.50;99.90
42245;DHT22;27912;51.828;5.688;2023-05-07T03:01:18;13.40;99.90
42245;DHT22;27912;51.828;5.688;2023-05-07T03:03:44;13.40;99.90
42245;DHT22;27912;51.828;5.688;2023-05-07T03:06:09;13.40;99.90
42245;DHT22;27912;51.828;5.688;2023-05-07T03:08:35;13.40;99.90
42245;DHT22;27912;51.828;5.688;2023-05-07T03:11:02;13.40;99.90
42245;DHT22;27912;51.828;5.688;2023-05-07T03:13:27;13.40;99.90
42245;DHT22;27912;51.828;5.688;2023-05-07T03:15:53;13.40;99.90
42245;DHT22;27912;51.828;5.688;2023-05-07T03:18:18;13.30;99.90
42245;DHT22;27912;51.828;5.688;2023-05-07T03:20:44;13.40;99.90
42245;DHT22;27912;51.828;5.688;2023-05-07T03:23:09;13.40;99.90
42245;DHT22;27912;51.828;5.688;2023-05-07T03:25:35;13.40;99.90
42245;DHT22;27912;51.828;5.688;2023-05-07T03:28:01;13.40;99.90
42245;DHT22;27912;51.828;5.688;2023-05-07T03:30:26;13.40;99.90
42245;DHT22;27912;51.828;5.688;2023-05-07T03:32:52;13.40;99.90
42245;DHT22;27912;51.828;5.688;2023-05-07T03:35:17;13.40;99.90
42245;DHT22;27912;51.828;5.688;2023-05-07T03:37:43;13.50;99.90
42245;DHT22;27912;51.828;5.688;2023-05-07T03:40:09;13.50;99.90
42245;DHT22;27912;51.828;5.688;2023-05-07T03:42:35;13.50;99.90
42245;DHT22;27912;51.828;5.688;2023-05-07T03:45:01;13.50;99.90
42245;DHT22;27912;51.828;5.688;2023-05-07T03:47:26;13.60;99.90
42245;DHT22;27912;51.828;5.688;2023-05-07T03:49:52;13.50;99.90
42245;DHT22;27912;51.828;5.688;2023-05-07T03:52:19;13.60;99.90
42245;DHT22;27912;51.828;5.688;2023-05-07T03:54:49;13.60;99.90
42245;DHT22;27912;51.828;5.688;2023-05-07T03:57:14;13.60;99.90
42245;DHT22;27912;51.828;5.688;2023-05-07T03:59:40;13.60;99.90
42245;DHT22;27912;51.828;5.688;2023-05-07T04:02:06;13.60;99.90
42245;DHT22;27912;51.828;5.688;2023-05-07T04:04:31;13.60;99.90
42245;DHT22;27912;51.828;5.688;2023-05-07T04:06:58;13.60;99.90
42245;DHT22;27912;51.828;5.688;2023-05-07T04:09:24;13.60;99.90
42245;DHT22;27912;51.828;5.688;2023-05-07T04:11:50;13.60;99.90
42245;DHT22;27912;51.828;5.688;2023-05-07T04:14:16;13.60;99.90
42245;DHT22;27912;51.828;5.688;2023-05-07T04:16:41;13.60;99.90
42245;DHT22;27912;51.828;5.688;2023-05-07T04:19:07;13.70;99.90
42245;DHT22;27912;51.828;5.688;2023-05-07T04:21:32;13.70;99.90
42245;DHT22;27912;51.828;5.688;2023-05-07T04:23:58;13.70;99.90
42245;DHT22;27912;51.828;5.688;2023-05-07T04:26:24;13.70;99.90
42245;DHT22;27912;51.828;5.688;2023-05-07T04:28:49;13.80;99.90
42245;DHT22;27912;51.828;5.688;2023-05-07T04:31:15;13.70;99.90
42245;DHT22;27912;51.828;5.688;2023-05-07T04:33:41;13.80;99.90
42245;DHT22;27912;51.828;5.688;2023-05-07T04:36:06;13.80;99.90
42245;DHT22;27912;51.828;5.688;2023-05-07T04:38:32;13.80;99.90
42245;DHT22;27912;51.828;5.688;2023-05-07T04:41:03;13.80;99.90
42245;DHT22;27912;51.828;5.688;2023-05-07T04:43:29;13.90;99.90
42245;DHT22;27912;51.828;5.688;2023-05-07T04:45:54;13.90;99.90
42245;DHT22;27912;51.828;5.688;2023-05-07T04:48:20;13.90;99.90
42245;DHT22;27912;51.828;5.688;2023-05-07T04:50:49;13.90;99.90
42245;DHT22;27912;51.828;5.688;2023-05-07T04:53:15;14.00;99.90
42245;DHT22;27912;51.828;5.688;2023-05-07T04:55:41;14.00;99.90
42245;DHT22;27912;51.828;5.688;2023-05-07T04:58:07;13.90;99.90
42245;DHT22;27912;51.828;5.688;2023-05-07T05:00:32;14.00;99.90
42245;DHT22;27912;51.828;5.688;2023-05-07T05:02:58;14.00;99.90
42245;DHT22;27912;51.828;5.688;2023-05-07T05:05:24;14.00;99.90
42245;DHT22;27912;51.828;5.688;2023-05-07T05:07:50;14.10;99.90
42245;DHT22;27912;51.828;5.688;2023-05-07T05:10:17;14.10;99.90
42245;DHT22;27912;51.828;5.688;2023-05-07T05:12:42;14.20;99.90
42245;DHT22;27912;51.828;5.688;2023-05-07T05:15:08;14.20;99.90
42245;DHT22;27912;51.828;5.688;2023-05-07T05:17:35;14.30;99.90
42245;DHT22;27912;51.828;5.688;2023-05-07T05:20:02;14.30;99.90
42245;DHT22;27912;51.828;5.688;2023-05-07T05:22:27;14.40;99.90
42245;DHT22;27912;51.828;5.688;2023-05-07T05:24:55;14.50;99.90
42245;DHT22;27912;51.828;5.688;2023-05-07T05:27:20;14.50;99.90
42245;DHT22;27912;51.828;5.688;2023-05-07T05:29:46;14.50;99.90
42245;DHT22;27912;51.828;5.688;2023-05-07T05:32:11;14.60;99.90
42245;DHT22;27912;51.828;5.688;2023-05-07T05:34:37;14.60;99.90
42245;DHT22;27912;51.828;5.688;2023-05-07T05:37:03;14.60;99.90
42245;DHT22;27912;51.828;5.688;2023-05-07T05:39:29;14.60;99.90
42245;DHT22;27912;51.828;5.688;2023-05-07T05:41:54;14.70;99.90
42245;DHT22;27912;51.828;5.688;2023-05-07T05:44:20;14.70;99.90
42245;DHT22;27912;51.828;5.688;2023-05-07T05:46:45;14.70;99.90
42245;DHT22;27912;51.828;5.688;2023-05-07T05:49:11;14.70;99.90
42245;DHT22;27912;51.828;5.688;2023-05-07T05:51:36;14.70;99.90
42245;DHT22;27912;51.828;5.688;2023-05-07T05:54:02;14.70;99.90
42245;DHT22;27912;51.828;5.688;2023-05-07T05:56:28;14.70;99.90
42245;DHT22;27912;51.828;5.688;2023-05-07T05:58:53;14.70;99.90
42245;DHT22;27912;51.828;5.688;2023-05-07T06:01:19;14.80;99.90
42245;DHT22;27912;51.828;5.688;2023-05-07T06:03:44;14.80;99.90
42245;DHT22;27912;51.828;5.688;2023-05-07T06:06:12;14.90;99.90
42245;DHT22;27912;51.828;5.688;2023-05-07T06:08:39;14.90;99.90
42245;DHT22;27912;51.828;5.688;2023-05-07T06:11:05;15.00;99.90
42245;DHT22;27912;51.828;5.688;2023-05-07T06:13:31;15.00;99.90
42245;DHT22;27912;51.828;5.688;2023-05-07T06:15:56;15.00;99.90
42245;DHT22;27912;51.828;5.688;2023-05-07T06:18:22;15.00;99.90
42245;DHT22;27912;51.828;5.688;2023-05-07T06:20:47;15.00;99.90
42245;DHT22;27912;51.828;5.688;2023-05-07T06:23:14;15.00;99.90
42245;DHT22;27912;51.828;5.688;2023-05-07T06:25:40;15.10;99.90
42245;DHT22;27912;51.828;5.688;2023-05-07T06:28:06;15.20;99.90
42245;DHT22;27912;51.828;5.688;2023-05-07T06:30:32;15.30;99.90
42245;DHT22;27912;51.828;5.688;2023-05-07T06:32:57;15.20;99.90
42245;DHT22;27912;51.828;5.688;2023-05-07T06:35:24;15.30;99.90
42245;DHT22;27912;51.828;5.688;2023-05-07T06:37:49;15.30;99.90
42245;DHT22;27912;51.828;5.688;2023-05-07T06:40:15;15.30;99.90
42245;DHT22;27912;51.828;5.688;2023-05-07T06:42:40;15.30;99.90
42245;DHT22;27912;51.828;5.688;2023-05-07T06:45:07;15.30;99.90
42245;DHT22;27912;51.828;5.688;2023-05-07T06:47:34;15.30;99.90
42245;DHT22;27912;51.828;5.688;2023-05-07T06:49:59;15.30;99.90
42245;DHT22;27912;51.828;5.688;2023-05-07T06:52:25;15.30;99.90
42245;DHT22;27912;51.828;5.688;2023-05-07T06:54:51;15.40;99.90
42245;DHT22;27912;51.828;5.688;2023-05-07T06:57:17;15.40;99.90
42245;DHT22;27912;51.828;5.688;2023-05-07T06:59:42;15.50;99.90
42245;DHT22;27912;51.828;5.688;2023-05-07T07:02:08;15.50;99.90
42245;DHT22;27912;51.828;5.688;2023-05-07T07:04:33;15.60;99.90
42245;DHT22;27912;51.828;5.688;2023-05-07T07:06:59;15.70;99.90
42245;DHT22;27912;51.828;5.688;2023-05-07T07:09:25;15.80;99.90
42245;DHT22;27912;51.828;5.688;2023-05-07T07:11:50;15.80;99.90
42245;DHT22;27912;51.828;5.688;2023-05-07T07:14:16;15.90;99.90
42245;DHT22;27912;51.828;5.688;2023-05-07T07:16:42;15.90;99.90
42245;DHT22;27912;51.828;5.688;2023-05-07T07:19:08;15.90;99.90
42245;DHT22;27912;51.828;5.688;2023-05-07T07:21:33;15.90;99.90
42245;DHT22;27912;51.828;5.688;2023-05-07T07:23:59;15.90;99.90
42245;DHT22;27912;51.828;5.688;2023-05-07T07:26:24;15.90;99.90
42245;DHT22;27912;51.828;5.688;2023-05-07T07:28:50;15.90;99.90
42245;DHT22;27912;51.828;5.688;2023-05-07T07:31:16;16.00;99.90
42245;DHT22;27912;51.828;5.688;2023-05-07T07:33:41;16.00;99.90
42245;DHT22;27912;51.828;5.688;2023-05-07T07:36:07;16.00;99.90
42245;DHT22;27912;51.828;5.688;2023-05-07T07:38:33;16.10;99.90
42245;DHT22;27912;51.828;5.688;2023-05-07T07:41:00;16.10;99.90
42245;DHT22;27912;51.828;5.688;2023-05-07T07:43:26;16.10;99.90
42245;DHT22;27912;51.828;5.688;2023-05-07T07:45:51;16.10;99.90
42245;DHT22;27912;51.828;5.688;2023-05-07T07:48:17;16.20;99.90
42245;DHT22;27912;51.828;5.688;2023-05-07T07:50:42;16.10;99.90
42245;DHT22;27912;51.828;5.688;2023-05-07T07:53:08;16.20;99.90
42245;DHT22;27912;51.828;5.688;2023-05-07T07:55:38;16.20;99.90
42245;DHT22;27912;51.828;5.688;2023-05-07T07:58:04;16.30;99.90
42245;DHT22;27912;51.828;5.688;2023-05-07T08:00:30;16.40;99.90
42245;DHT22;27912;51.828;5.688;2023-05-07T08:02:55;16.40;99.90
42245;DHT22;27912;51.828;5.688;2023-05-07T08:05:21;16.50;99.90
42245;DHT22;27912;51.828;5.688;2023-05-07T08:07:47;16.40;99.90
42245;DHT22;27912;51.828;5.688;2023-05-07T08:10:17;16.50;99.90
42245;DHT22;27912;51.828;5.688;2023-05-07T08:12:47;16.50;99.90
42245;DHT22;27912;51.828;5.688;2023-05-07T08:15:13;16.60;99.90
42245;DHT22;27912;51.828;5.688;2023-05-07T08:17:38;16.60;99.90
42245;DHT22;27912;51.828;5.688;2023-05-07T08:20:04;16.60;99.90
42245;DHT22;27912;51.828;5.688;2023-05-07T08:22:30;16.80;99.90
42245;DHT22;27912;51.828;5.688;2023-05-07T08:24:56;16.90;99.90
42245;DHT22;27912;51.828;5.688;2023-05-07T08:27:21;16.90;99.90
42245;DHT22;27912;51.828;5.688;2023-05-07T08:29:47;17.00;99.90
42245;DHT22;27912;51.828;5.688;2023-05-07T08:32:14;17.10;99.90
42245;DHT22;27912;51.828;5.688;2023-05-07T08:34:40;17.20;99.90
42245;DHT22;27912;51.828;5.688;2023-05-07T08:37:06;17.40;99.90
42245;DHT22;27912;51.828;5.688;2023-05-07T08:39:31;17.60;99.90
42245;DHT22;27912;51.828;5.688;2023-05-07T08:42:00;17.60;99.90
42245;DHT22;27912;51.828;5.688;2023-05-07T08:44:28;17.70;99.90
42245;DHT22;27912;51.828;5.688;2023-05-07T08:46:58;17.80;99.90
42245;DHT22;27912;51.828;5.688;2023-05-07T08:49:25;17.90;99.90
42245;DHT22;27912;51.828;5.688;2023-05-07T08:51:51;17.90;99.90
42245;DHT22;27912;51.828;5.688;2023-05-07T08:54:18;17.90;99.90
42245;DHT22;27912;51.828;5.688;2023-05-07T08:56:45;18.00;99.90
42245;DHT22;27912;51.828;5.688;2023-05-07T08:59:10;18.10;99.90
42245;DHT22;27912;51.828;5.688;2023-05-07T09:01:36;18.30;99.90
42245;DHT22;27912;51.828;5.688;2023-05-07T09:04:02;18.50;99.90
42245;DHT22;27912;51.828;5.688;2023-05-07T09:06:27;18.50;99.90
42245;DHT22;27912;51.828;5.688;2023-05-07T09:08:54;18.70;99.90
42245;DHT22;27912;51.828;5.688;2023-05-07T09:11:21;18.70;99.90
42245;DHT22;27912;51.828;5.688;2023-05-07T09:13:48;18.90;99.90
42245;DHT22;27912;51.828;5.688;2023-05-07T09:16:15;18.90;99.90
42245;DHT22;27912;51.828;5.688;2023-05-07T09:18:44;19.00;99.90
42245;DHT22;27912;51.828;5.688;2023-05-07T09:21:11;18.90;99.90
42245;DHT22;27912;51.828;5.688;2023-05-07T09:23:37;18.90;99.90
42245;DHT22;27912;51.828;5.688;2023-05-07T09:26:03;19.10;99.90
42245;DHT22;27912;51.828;5.688;2023-05-07T09:28:29;19.30;99.90
42245;DHT22;27912;51.828;5.688;2023-05-07T09:30:55;19.50;99.90
42245;DHT22;27912;51.828;5.688;2023-05-07T09:33:21;19.50;99.90
42245;DHT22;27912;51.828;5.688;2023-05-07T09:35:51;19.60;99.90
42245;DHT22;27912;51.828;5.688;2023-05-07T09:38:17;19.60;99.90
42245;DHT22;27912;51.828;5.688;2023-05-07T09:40:44;19.70;99.90
42245;DHT22;27912;51.828;5.688;2023-05-07T09:43:11;19.90;99.90
42245;DHT22;27912;51.828;5.688;2023-05-07T09:45:38;20.10;99.90
42245;DHT22;27912;51.828;5.688;2023-05-07T09:48:06;20.40;99.90
42245;DHT22;27912;51.828;5.688;2023-05-07T09:50:48;20.70;99.90
42245;DHT22;27912;51.828;5.688;2023-05-07T09:53:15;20.80;99.90
42245;DHT22;27912;51.828;5.688;2023-05-07T09:55:43;20.80;99.90
42245;DHT22;27912;51.828;5.688;2023-05-07T09:58:09;20.80;99.90
42245;DHT22;27912;51.828;5.688;2023-05-07T10:00:37;20.90;99.90
42245;DHT22;27912;51.828;5.688;2023-05-07T10:03:05;20.80;99.90
42245;DHT22;27912;51.828;5.688;2023-05-07T10:05:32;20.90;99.90
42245;DHT22;27912;51.828;5.688;2023-05-07T10:07:58;21.00;99.90
42245;DHT22;27912;51.828;5.688;2023-05-07T10:10:24;20.90;99.90
42245;DHT22;27912;51.828;5.688;2023-05-07T10:12:50;20.90;99.90
42245;DHT22;27912;51.828;5.688;2023-05-07T10:15:16;20.90;99.90
42245;DHT22;27912;51.828;5.688;2023-05-07T10:17:42;20.90;99.90
42245;DHT22;27912;51.828;5.688;2023-05-07T10:32:56;21.60;99.90
42245;DHT22;27912;51.828;5.688;2023-05-07T10:35:32;21.60;99.90
42245;DHT22;27912;51.828;5.688;2023-05-07T10:38:01;21.70;99.90
42245;DHT22;27912;51.828;5.688;2023-05-07T10:40:27;21.90;99.90
42245;DHT22;27912;51.828;5.688;2023-05-07T10:43:03;21.80;99.90
42245;DHT22;27912;51.828;5.688;2023-05-07T10:45:32;21.80;99.90
42245;DHT22;27912;51.828;5.688;2023-05-07T10:48:13;21.90;99.90
42245;DHT22;27912;51.828;5.688;2023-05-07T10:50:40;22.00;99.90
42245;DHT22;27912;51.828;5.688;2023-05-07T10:53:21;21.90;99.90
42245;DHT22;27912;51.828;5.688;2023-05-07T10:55:51;21.80;99.90
42245;DHT22;27912;51.828;5.688;2023-05-07T10:58:30;21.80;99.90
42245;DHT22;27912;51.828;5.688;2023-05-07T11:03:22;22.00;99.90
42245;DHT22;27912;51.828;5.688;2023-05-07T11:06:14;22.00;99.90
42245;DHT22;27912;51.828;5.688;2023-05-07T11:11:17;21.90;99.90
42245;DHT22;27912;51.828;5.688;2023-05-07T11:13:49;21.90;99.90
42245;DHT22;27912;51.828;5.688;2023-05-07T11:16:23;21.70;99.90
42245;DHT22;27912;51.828;5.688;2023-05-07T11:18:52;21.70;99.90
42245;DHT22;27912;51.828;5.688;2023-05-07T11:24:03;21.50;99.90
42245;DHT22;27912;51.828;5.688;2023-05-07T11:26:43;21.40;99.90
42245;DHT22;27912;51.828;5.688;2023-05-07T11:29:17;21.40;99.90
42245;DHT22;27912;51.828;5.688;2023-05-07T11:31:42;21.30;99.90
42245;DHT22;27912;51.828;5.688;2023-05-07T11:34:08;21.20;99.90
42245;DHT22;27912;51.828;5.688;2023-05-07T11:36:36;21.10;99.90
42245;DHT22;27912;51.828;5.688;2023-05-07T11:39:06;21.00;99.90
42245;DHT22;27912;51.828;5.688;2023-05-07T11:41:47;21.00;99.90
42245;DHT22;27912;51.828;5.688;2023-05-07T11:44:13;21.00;99.90
42245;DHT22;27912;51.828;5.688;2023-05-07T11:46:43;20.90;99.90
42245;DHT22;27912;51.828;5.688;2023-05-07T11:49:09;20.80;99.90
42245;DHT22;27912;51.828;5.688;2023-05-07T11:51:34;20.70;99.90
42245;DHT22;27912;51.828;5.688;2023-05-07T11:54:00;20.70;99.90
42245;DHT22;27912;51.828;5.688;2023-05-07T11:56:28;20.70;99.90
42245;DHT22;27912;51.828;5.688;2023-05-07T11:58:54;20.70;99.90
42245;DHT22;27912;51.828;5.688;2023-05-07T12:01:20;20.70;99.90
42245;DHT22;27912;51.828;5.688;2023-05-07T12:03:46;20.80;99.90
42245;DHT22;27912;51.828;5.688;2023-05-07T12:06:12;20.80;99.90
42245;DHT22;27912;51.828;5.688;2023-05-07T12:08:39;20.80;99.90
42245;DHT22;27912;51.828;5.688;2023-05-07T12:11:11;20.90;99.90
42245;DHT22;27912;51.828;5.688;2023-05-07T12:13:37;21.00;99.90
42245;DHT22;27912;51.828;5.688;2023-05-07T12:16:04;21.00;99.90
42245;DHT22;27912;51.828;5.688;2023-05-07T12:18:30;21.10;99.90
42245;DHT22;27912;51.828;5.688;2023-05-07T12:20:56;21.30;99.90
42245;DHT22;27912;51.828;5.688;2023-05-07T12:23:22;21.40;99.90
42245;DHT22;27912;51.828;5.688;2023-05-07T12:25:48;21.50;99.90
42245;DHT22;27912;51.828;5.688;2023-05-07T12:28:18;21.60;99.90
42245;DHT22;27912;51.828;5.688;2023-05-07T12:30:46;21.60;99.90
42245;DHT22;27912;51.828;5.688;2023-05-07T12:33:12;21.60;99.90
42245;DHT22;27912;51.828;5.688;2023-05-07T12:35:41;21.60;99.90
42245;DHT22;27912;51.828;5.688;2023-05-07T12:38:09;21.70;99.90
42245;DHT22;27912;51.828;5.688;2023-05-07T12:43:03;21.70;99.90
42245;DHT22;27912;51.828;5.688;2023-05-07T12:45:29;21.80;99.90
42245;DHT22;27912;51.828;5.688;2023-05-07T12:47:54;21.70;99.90
42245;DHT22;27912;51.828;5.688;2023-05-07T12:50:20;21.70;99.90
42245;DHT22;27912;51.828;5.688;2023-05-07T12:52:48;21.60;99.90
42245;DHT22;27912;51.828;5.688;2023-05-07T12:55:15;21.70;99.90
42245;DHT22;27912;51.828;5.688;2023-05-07T12:57:48;21.70;99.90
42245;DHT22;27912;51.828;5.688;2023-05-07T13:00:14;21.70;99.90
42245;DHT22;27912;51.828;5.688;2023-05-07T13:02:41;21.70;99.90
42245;DHT22;27912;51.828;5.688;2023-05-07T13:05:07;21.70;99.90
42245;DHT22;27912;51.828;5.688;2023-05-07T13:07:33;21.70;99.90
42245;DHT22;27912;51.828;5.688;2023-05-07T13:09:59;21.70;99.90
42245;DHT22;27912;51.828;5.688;2023-05-07T13:12:25;21.90;99.90
42245;DHT22;27912;51.828;5.688;2023-05-07T13:14:50;22.00;99.90
42245;DHT22;27912;51.828;5.688;2023-05-07T13:17:16;22.00;99.90
42245;DHT22;27912;51.828;5.688;2023-05-07T13:19:41;21.80;99.90
42245;DHT22;27912;51.828;5.688;2023-05-07T13:22:07;21.80;99.90
42245;DHT22;27912;51.828;5.688;2023-05-07T13:24:32;21.60;99.90
42245;DHT22;27912;51.828;5.688;2023-05-07T13:26:58;21.60;99.90
42245;DHT22;27912;51.828;5.688;2023-05-07T13:29:24;21.50;99.90
42245;DHT22;27912;51.828;5.688;2023-05-07T13:31:58;21.50;99.90
42245;DHT22;27912;51.828;5.688;2023-05-07T13:34:23;21.50;99.90
42245;DHT22;27912;51.828;5.688;2023-05-07T13:36:49;21.50;99.90
42245;DHT22;27912;51.828;5.688;2023-05-07T13:39:15;21.40;99.90
42245;DHT22;27912;51.828;5.688;2023-05-07T13:41:41;21.40;99.90
42245;DHT22;27912;51.828;5.688;2023-05-07T13:44:06;21.30;99.90
42245;DHT22;27912;51.828;5.688;2023-05-07T13:46:32;21.40;99.90
42245;DHT22;27912;51.828;5.688;2023-05-07T13:48:58;21.40;99.90
42245;DHT22;27912;51.828;5.688;2023-05-07T13:51:23;21.50;99.90
42245;DHT22;27912;51.828;5.688;2023-05-07T13:53:49;21.50;99.90
42245;DHT22;27912;51.828;5.688;2023-05-07T13:56:14;21.60;99.90
42245;DHT22;27912;51.828;5.688;2023-05-07T13:58:40;21.70;99.90
42245;DHT22;27912;51.828;5.688;2023-05-07T14:01:06;21.70;99.90
42245;DHT22;27912;51.828;5.688;2023-05-07T14:03:31;21.80;99.90
42245;DHT22;27912;51.828;5.688;2023-05-07T14:05:59;21.80;99.90
42245;DHT22;27912;51.828;5.688;2023-05-07T14:08:26;21.80;99.90
42245;DHT22;27912;51.828;5.688;2023-05-07T14:10:52;21.80;99.90
42245;DHT22;27912;51.828;5.688;2023-05-07T14:13:18;21.80;99.90
42245;DHT22;27912;51.828;5.688;2023-05-07T14:15:43;21.80;99.90
42245;DHT22;27912;51.828;5.688;2023-05-07T14:18:18;21.90;99.90
42245;DHT22;27912;51.828;5.688;2023-05-07T14:20:43;21.90;99.90
42245;DHT22;27912;51.828;5.688;2023-05-07T14:23:11;22.00;99.90
42245;DHT22;27912;51.828;5.688;2023-05-07T14:25:36;22.20;99.90
42245;DHT22;27912;51.828;5.688;2023-05-07T14:28:02;22.30;99.90
42245;DHT22;27912;51.828;5.688;2023-05-07T14:30:27;22.40;99.90
42245;DHT22;27912;51.828;5.688;2023-05-07T14:32:53;22.20;99.90
42245;DHT22;27912;51.828;5.688;2023-05-07T14:35:18;21.70;99.90
42245;DHT22;27912;51.828;5.688;2023-05-07T14:37:44;21.40;99.90
42245;DHT22;27912;51.828;5.688;2023-05-07T14:40:10;21.00;99.90
42245;DHT22;27912;51.828;5.688;2023-05-07T14:42:35;20.70;99.90
42245;DHT22;27912;51.828;5.688;2023-05-07T14:45:01;20.50;99.90
42245;DHT22;27912;51.828;5.688;2023-05-07T14:47:27;20.10;99.90
42245;DHT22;27912;51.828;5.688;2023-05-07T14:49:53;19.80;99.90
42245;DHT22;27912;51.828;5.688;2023-05-07T14:52:18;19.50;99.90
42245;DHT22;27912;51.828;5.688;2023-05-07T14:54:44;19.10;99.90
42245;DHT22;27912;51.828;5.688;2023-05-07T14:57:10;18.90;99.90
42245;DHT22;27912;51.828;5.688;2023-05-07T14:59:39;18.60;99.90
42245;DHT22;27912;51.828;5.688;2023-05-07T15:02:05;18.40;99.90
42245;DHT22;27912;51.828;5.688;2023-05-07T15:04:33;18.20;99.90
42245;DHT22;27912;51.828;5.688;2023-05-07T15:06:59;18.00;99.90
42245;DHT22;27912;51.828;5.688;2023-05-07T15:09:24;17.80;99.90
42245;DHT22;27912;51.828;5.688;2023-05-07T15:11:50;17.70;99.90
42245;DHT22;27912;51.828;5.688;2023-05-07T15:14:15;17.50;99.90
42245;DHT22;27912;51.828;5.688;2023-05-07T15:16:41;17.40;99.90
42245;DHT22;27912;51.828;5.688;2023-05-07T15:19:06;17.20;99.90
42245;DHT22;27912;51.828;5.688;2023-05-07T15:21:32;17.10;99.90
42245;DHT22;27912;51.828;5.688;2023-05-07T15:24:00;16.90;99.90
42245;DHT22;27912;51.828;5.688;2023-05-07T15:26:26;16.80;99.90
42245;DHT22;27912;51.828;5.688;2023-05-07T15:28:51;16.70;99.90
42245;DHT22;27912;51.828;5.688;2023-05-07T15:31:17;16.60;99.90
42245;DHT22;27912;51.828;5.688;2023-05-07T15:33:43;16.60;99.90
42245;DHT22;27912;51.828;5.688;2023-05-07T15:36:10;16.60;99.90
42245;DHT22;27912;51.828;5.688;2023-05-07T15:38:36;16.50;99.90
42245;DHT22;27912;51.828;5.688;2023-05-07T15:41:01;16.50;99.90
42245;DHT22;27912;51.828;5.688;2023-05-07T15:43:27;16.50;99.90
42245;DHT22;27912;51.828;5.688;2023-05-07T15:45:52;16.50;99.90
42245;DHT22;27912;51.828;5.688;2023-05-07T15:48:18;16.50;99.90
42245;DHT22;27912;51.828;5.688;2023-05-07T15:50:44;16.40;99.90